Date,TemperatureHighF,TemperatureAvgF,TemperatureLowF,DewpointHighF,DewpointAvgF,DewpointLowF,HumidityHigh,HumidityAvg,HumidityLow,PressureMaxIn,PressureMinIn,WindSpeedMaxMPH,WindSpeedAvgMPH,GustSpeedMaxMPH,PrecipitationSumIn
2013-6-1,77,68,59,72,64,56,96,85,65,29.95,29.58,18,0,18,0.49
2013-6-2,67,60,52,60,55,50,96,86,71,30.02,29.93,0,0,3,0.00
2013-6-3,77,63,46,62,56,44,96,79,52,30.04,29.86,0,0,3,0.00
2013-6-4,77,67,61,68,62,58,93,85,70,29.95,29.84,0,0,0,0.00
2013-6-5,78,68,61,70,64,59,95,87,69,29.98,29.80,0,0,0,0.23
2013-6-6,73,64,56,65,60,54,96,86,67,29.91,29.84,0,0,0,0.00
2013-6-7,76,62,50,60,55,48,95,79,50,29.95,29.86,0,0,0,0.00
2013-6-8,79,66,51,64,57,49,96,76,52,29.92,29.79,0,0,0,0.00
2013-6-9,82,71,62,68,62,59,94,75,49,29.84,29.78,9,0,0,0.04
2013-6-10,89,77,64,73,66,59,87,71,44,29.87,29.79,10,1,0,0.00
2013-6-11,90,81,72,72,69,65,82,67,45,29.93,29.83,11,1,0,0.00
2013-6-12,88,81,74,72,70,67,85,71,52,29.91,29.81,19,2,0,0.00
2013-6-13,88,77,68,73,69,65,94,77,49,29.95,29.86,6,0,0,0.00
2013-6-14,89,77,66,78,71,64,94,81,65,29.97,29.84,5,0,0,0.00
2013-6-15,87,76,69,75,69,65,94,82,63,29.98,29.87,12,0,0,0.17
2013-6-16,86,75,68,77,70,64,96,84,66,29.95,29.83,8,0,0,0.01
2013-6-17,72,68,65,70,66,63,95,93,88,29.93,29.82,4,0,0,0.17
2013-6-18,83,71,62,71,65,60,96,83,56,29.98,29.90,3,0,0,0.00
2013-6-19,85,73,60,71,64,59,96,78,54,30.00,29.91,5,0,0,0.00
2013-6-20,88,76,64,74,68,61,94,78,59,30.01,29.92,6,1,0,0.00
2013-6-21,90,81,72,75,72,69,90,75,54,30.00,29.92,11,1,0,0.00
2013-6-22,87,79,72,74,71,68,89,76,57,29.99,29.86,8,1,0,0.00
2013-6-23,88,79,69,74,70,67,94,75,54,29.94,29.84,11,1,0,0.00
2013-6-24,88,80,71,74,70,67,87,73,56,29.98,29.86,10,1,0,0.00
2013-6-25,87,80,75,72,70,67,84,71,54,29.90,29.76,11,2,0,0.00
2013-6-26,92,81,73,78,72,70,92,76,59,29.86,29.75,13,1,0,0.00
2013-6-27,96,86,71,79,74,68,95,70,50,29.90,29.78,7,0,0,0.00
2013-6-28,89,81,68,76,69,60,90,70,45,29.86,29.74,9,1,0,0.00
2013-6-29,85,72,60,65,58,55,92,65,38,29.83,29.74,13,2,0,0.00
2013-6-30,78,67,59,63,59,55,92,77,56,29.92,29.78,11,1,0,0.00